Hrossey — VSTY6 — position and weather

sailwx.info

Track history (hours):
 
Tides and Currents Weather Stations Pressure Air Temp Water Temp Dewpoint Dewpoint Depression Visibility Wind Speed Wind Dir Waves Ship Positions

Hrossey

Operator: NorthLink Orkey & Shetland Ferries Ltd

Last reported at 2017-May-25 10:31 UTC. Time now 2017-May-25 10:33 UTC.
Position N 57°09' W 002°05'.

Length 125 m; draft 5.4 m.

Type: Passenger vessel. MMSI: 235448000.

Date/timePositionNaut miles runAvg speedWind from/ knotsBaromVisibWave heightAir tempDewpointWater temp
2017-May-25 10:31N 57°09' W 002°05'0 0.0
2017-May-25 10:01N 57°09' W 002°05'0 0.0
2017-May-25 09:30N 57°09' W 002°05'0 0.0
2017-May-25 09:00N 57°09' W 002°05'0 0.0
2017-May-25 08:30N 57°09' W 002°05'0 0.0
2017-May-25 08:00N 57°09' W 002°05'0 0.0
2017-May-25 07:30N 57°09' W 002°05'0 0.0
2017-May-25 07:01N 57°09' W 002°05'0 0.0
2017-May-25 06:30N 57°09' W 002°05'0 0.0
2017-May-25 06:00N 57°09' W 002°05'1 1.4
2017-May-25 05:30N 57°08' W 002°04'918.0
2017-May-25 05:00N 57°15' W 001°53'1221.4
2017-May-25 04:27N 57°25' W 001°41'819.0
2017-May-25 04:00N 57°34' W 001°40'9020.6
2017-May-24 23:37N 58°58' W 002°39'219.2
2017-May-24 23:30N 58°60' W 002°42'816.5
2017-May-24 23:00N 58°60' W 002°58'0 0.2
2017-May-24 22:09N 58°60' W 002°58'0 0.0
2017-May-24 21:55N 58°60' W 002°58'2 5.0
2017-May-24 21:29N 59°01' W 002°55'817.4
2017-May-24 21:00N 59°00' W 002°39'7 0.3
2017-May-24 00:32N 59°04' W 002°28'014.5
2017-May-24 00:30N 59°04' W 002°28'713.7
2017-May-23 23:59N 59°01' W 002°41'715.3
2017-May-23 23:30N 59°01' W 002°55'2 4.4
2017-May-23 23:00N 58°60' W 002°58'0 0.0
2017-May-23 22:30N 58°60' W 002°58'0 0.0
2017-May-23 21:59N 58°60' W 002°58'3 7.2
2017-May-23 21:30N 59°01' W 002°52'9322.1
2017-May-23 17:18N 57°36' W 001°39'725.0
2017-May-23 17:00N 57°29' W 001°40'1325.0
2017-May-23 16:30N 57°18' W 001°51'1122.6
2017-May-23 16:00N 57°09' W 002°03'1 2.1
2017-May-23 15:30N 57°09' W 002°05'0 0.0
2017-May-23 15:00N 57°09' W 002°05'0 0.0
2017-May-23 14:31N 57°09' W 002°05'0 0.0
2017-May-23 13:30N 57°09' W 002°05'0 0.0
2017-May-23 13:01N 57°09' W 002°05'0 0.0
2017-May-23 12:31N 57°09' W 002°05'0 0.0
2017-May-23 12:01N 57°09' W 002°05'0 0.0
2017-May-23 11:31N 57°09' W 002°05'0 0.0
2017-May-23 11:00N 57°09' W 002°05'0 0.0
2017-May-23 10:30N 57°09' W 002°05'0 0.0
2017-May-23 10:00N 57°09' W 002°05'0 0.0
2017-May-23 09:31N 57°09' W 002°05'0 0.0
2017-May-23 09:00N 57°09' W 002°05'0 0.0
2017-May-23 08:30N 57°09' W 002°05'0 0.0
2017-May-23 08:00N 57°09' W 002°05'0 0.0
2017-May-23 07:30N 57°09' W 002°05'0 0.0
2017-May-23 07:00N 57°09' W 002°05'0 0.0
2017-May-23 06:30N 57°09' W 002°05'0 0.0
2017-May-23 06:00N 57°09' W 002°05'1 1.2
2017-May-23 05:30N 57°08' W 002°04'715.0
2017-May-23 05:00N 57°14' W 001°55'1918.9
2017-May-23 04:00N 57°30' W 001°37'9220.3
2017-May-22 23:29N 58°56' W 002°38'918.2
2017-May-22 23:00N 59°01' W 002°52'4 7.2
2017-May-22 22:30N 58°60' W 002°58'0 0.0
2017-May-22 22:00N 58°60' W 002°58'510.5
2017-May-22 21:30N 59°01' W 002°48'1017.2
2017-May-22 20:56N 59°01' W 002°29'3 0.2
2017-May-22 00:09N 59°04' W 002°28'213.3
2017-May-22 00:00N 59°02' W 002°30'611.1
2017-May-21 23:29N 59°01' W 002°41'613.5
2017-May-21 23:00N 59°01' W 002°53'3 5.7
2017-May-21 22:30N 58°60' W 002°58'0 0.0
2017-May-21 22:00N 58°60' W 002°58'5 9.1
2017-May-21 21:30N 59°01' W 002°50'9222.3
2017-May-21 17:23N 57°36' W 001°41'923.4
2017-May-21 17:00N 57°27' W 001°41'1223.6
2017-May-21 16:30N 57°17' W 001°52'1020.9
2017-May-21 16:01N 57°09' W 002°04'1 1.8
2017-May-21 15:30N 57°09' W 002°05'0 0.0
2017-May-21 15:00N 57°09' W 002°05'0 0.0
2017-May-21 14:30N 57°09' W 002°05'0 0.0
2017-May-21 13:30N 57°09' W 002°05'0 0.0
2017-May-21 13:01N 57°09' W 002°05'0 0.0
2017-May-21 12:30N 57°09' W 002°05'0 0.0
2017-May-21 12:00N 57°09' W 002°05'0 0.0
2017-May-21 11:31N 57°09' W 002°05'0 0.0
2017-May-21 11:00N 57°09' W 002°05'0 0.0
2017-May-21 10:30N 57°09' W 002°05'0 0.0
2017-May-21 10:00N 57°09' W 002°05'0 0.0
2017-May-21 09:31N 57°09' W 002°05'0 0.0
2017-May-21 09:00N 57°09' W 002°05'0 0.0
2017-May-21 08:30N 57°09' W 002°05'0 0.0
2017-May-21 08:00N 57°09' W 002°05'0 0.0
2017-May-21 07:31N 57°09' W 002°05'0 0.0
2017-May-21 07:00N 57°09' W 002°05'0 0.0
2017-May-21 06:30N 57°09' W 002°05'0 0.0
2017-May-21 06:01N 57°09' W 002°05'0 1.0
2017-May-21 05:30N 57°09' W 002°05'2211.8
2017-May-21 03:38N 57°27' W 001°41'212.0
2017-May-21 03:30N 57°28' W 001°40'714.3
2017-May-21 03:00N 57°35' W 001°37'1 0.0
2017-May-19 20:12N 57°36' W 001°37'314.4
2017-May-19 19:59N 57°33' W 001°37'714.0
2017-May-19 19:30N 57°26' W 001°40'914.4
2017-May-19 18:52N 57°18' W 001°49'514.4
2017-May-19 18:31N 57°14' W 001°55'714.3
2017-May-19 18:01N 57°09' W 002°03'1 2.2
2017-May-19 17:31N 57°09' W 002°05'0 0.0
2017-May-19 17:01N 57°09' W 002°05'0 0.0
2017-May-19 16:30N 57°09' W 002°05'0 0.0
2017-May-19 16:01N 57°09' W 002°05'0 0.0
2017-May-19 15:30N 57°09' W 002°05'0 0.0
2017-May-19 15:01N 57°09' W 002°05'0 0.0
2017-May-19 14:01N 57°09' W 002°05'0 0.0
2017-May-19 13:31N 57°09' W 002°05'0 0.0
2017-May-19 13:00N 57°09' W 002°05'0 0.0
2017-May-19 12:30N 57°09' W 002°05'0 0.0
2017-May-19 12:00N 57°09' W 002°05'0 0.0
2017-May-19 11:30N 57°09' W 002°05'0 0.0
2017-May-19 11:00N 57°09' W 002°05'0 0.0
2017-May-19 10:30N 57°09' W 002°05'0 0.0
2017-May-19 10:00N 57°09' W 002°05'0 0.0
2017-May-19 09:30N 57°09' W 002°05'0 0.0
2017-May-19 09:01N 57°09' W 002°05'0 0.0
2017-May-19 08:30N 57°09' W 002°05'0 0.0
2017-May-19 08:01N 57°09' W 002°05'0 0.0
2017-May-19 07:31N 57°09' W 002°05'0 0.0
2017-May-19 07:00N 57°09' W 002°05'0 0.0
2017-May-19 06:30N 57°09' W 002°05'0 0.0
2017-May-19 06:01N 57°09' W 002°05'1 1.1
2017-May-19 05:30N 57°09' W 002°04'713.1
2017-May-19 05:00N 57°13' W 001°56'1016.6
2017-May-19 04:25N 57°21' W 001°45'2 0.1
2017-May-17 18:45N 57°19' W 001°48'418.3
2017-May-17 18:30N 57°16' W 001°53'917.7
2017-May-17 18:00N 57°09' W 002°03'1 2.9
2017-May-17 17:31N 57°09' W 002°05'0 0.0
2017-May-17 17:01N 57°09' W 002°05'0 0.0
2017-May-17 16:30N 57°09' W 002°05'0 0.0
2017-May-17 16:00N 57°09' W 002°05'0 0.0
2017-May-17 15:30N 57°09' W 002°05'0 0.0
2017-May-17 15:00N 57°09' W 002°05'0 0.0
2017-May-17 14:00N 57°09' W 002°05'0 0.0
2017-May-17 13:31N 57°09' W 002°05'0 0.0
2017-May-17 13:00N 57°09' W 002°05'0 0.0
2017-May-17 12:30N 57°09' W 002°05'0 0.0
2017-May-17 12:00N 57°09' W 002°05'0 0.0
2017-May-17 11:30N 57°09' W 002°05'0 0.0
2017-May-17 11:00N 57°09' W 002°05'0 0.0
2017-May-17 10:30N 57°09' W 002°05'0 0.0
2017-May-17 10:00N 57°09' W 002°05'0 0.0
2017-May-17 09:30N 57°09' W 002°05'0 0.0
2017-May-17 09:00N 57°09' W 002°05'0 0.0
2017-May-17 08:30N 57°09' W 002°05'0 0.0
2017-May-17 08:00N 57°09' W 002°05'0 0.0
2017-May-17 07:30N 57°09' W 002°05'0 0.0
2017-May-17 07:01N 57°09' W 002°05'0 0.0
2017-May-17 06:30N 57°09' W 002°05'0 0.0
2017-May-17 06:00N 57°09' W 002°05'1 1.3
2017-May-17 05:31N 57°08' W 002°04'612.7
2017-May-17 05:01N 57°13' W 001°56'4 0.1
2017-May-15 18:26N 57°16' W 001°53'819.2
2017-May-15 18:00N 57°10' W 002°02'2 4.7
2017-May-15 17:30N 57°09' W 002°05'0 0.0
2017-May-15 17:00N 57°09' W 002°05'0 0.0
2017-May-15 16:30N 57°09' W 002°05'0 0.0
2017-May-15 16:00N 57°09' W 002°05'0 0.0
2017-May-15 15:30N 57°09' W 002°05'0 0.0
2017-May-15 15:00N 57°09' W 002°05'0 0.0
2017-May-15 14:00N 57°09' W 002°05'0 0.0
2017-May-15 13:30N 57°09' W 002°05'0 0.0
2017-May-15 13:00N 57°09' W 002°05'0 0.0
2017-May-15 12:30N 57°09' W 002°05'0 0.0
2017-May-15 12:01N 57°09' W 002°05'0 0.0
2017-May-15 11:30N 57°09' W 002°05'0 0.0
2017-May-15 11:01N 57°09' W 002°05'  
Track history (hours):
 
Tides and Currents Weather Stations Pressure Air Temp Water Temp Dewpoint Dewpoint Depression Visibility Wind Speed Wind Dir Waves Ship Positions

Hrossey

Operator: NorthLink Orkey & Shetland Ferries Ltd

Last reported at 2017-May-25 10:31 UTC. Time now 2017-May-25 10:33 UTC.
Position N 57°09' W 002°05'.

Length 125 m; draft 5.4 m.

Type: Passenger vessel. MMSI: 235448000.

Date/timePositionNaut miles runAvg speedWind from/ knotsBaromVisibWave heightAir tempDewpointWater temp
2017-May-25 10:31N 57°09' W 002°05'0 0.0
2017-May-25 10:01N 57°09' W 002°05'0 0.0
2017-May-25 09:30N 57°09' W 002°05'0 0.0
2017-May-25 09:00N 57°09' W 002°05'0 0.0
2017-May-25 08:30N 57°09' W 002°05'0 0.0
2017-May-25 08:00N 57°09' W 002°05'0 0.0
2017-May-25 07:30N 57°09' W 002°05'0 0.0
2017-May-25 07:01N 57°09' W 002°05'0 0.0
2017-May-25 06:30N 57°09' W 002°05'0 0.0
2017-May-25 06:00N 57°09' W 002°05'1 1.4
2017-May-25 05:30N 57°08' W 002°04'918.0
2017-May-25 05:00N 57°15' W 001°53'1221.4
2017-May-25 04:27N 57°25' W 001°41'819.0
2017-May-25 04:00N 57°34' W 001°40'9020.6
2017-May-24 23:37N 58°58' W 002°39'219.2
2017-May-24 23:30N 58°60' W 002°42'816.5
2017-May-24 23:00N 58°60' W 002°58'0 0.2
2017-May-24 22:09N 58°60' W 002°58'0 0.0
2017-May-24 21:55N 58°60' W 002°58'2 5.0
2017-May-24 21:29N 59°01' W 002°55'817.4
2017-May-24 21:00N 59°00' W 002°39'7 0.3
2017-May-24 00:32N 59°04' W 002°28'014.5
2017-May-24 00:30N 59°04' W 002°28'713.7
2017-May-23 23:59N 59°01' W 002°41'715.3
2017-May-23 23:30N 59°01' W 002°55'2 4.4
2017-May-23 23:00N 58°60' W 002°58'0 0.0
2017-May-23 22:30N 58°60' W 002°58'0 0.0
2017-May-23 21:59N 58°60' W 002°58'3 7.2
2017-May-23 21:30N 59°01' W 002°52'9322.1
2017-May-23 17:18N 57°36' W 001°39'725.0
2017-May-23 17:00N 57°29' W 001°40'1325.0
2017-May-23 16:30N 57°18' W 001°51'1122.6
2017-May-23 16:00N 57°09' W 002°03'1 2.1
2017-May-23 15:30N 57°09' W 002°05'0 0.0
2017-May-23 15:00N 57°09' W 002°05'0 0.0
2017-May-23 14:31N 57°09' W 002°05'0 0.0
2017-May-23 13:30N 57°09' W 002°05'0 0.0
2017-May-23 13:01N 57°09' W 002°05'0 0.0
2017-May-23 12:31N 57°09' W 002°05'0 0.0
2017-May-23 12:01N 57°09' W 002°05'0 0.0
2017-May-23 11:31N 57°09' W 002°05'0 0.0
2017-May-23 11:00N 57°09' W 002°05'0 0.0
2017-May-23 10:30N 57°09' W 002°05'0 0.0
2017-May-23 10:00N 57°09' W 002°05'0 0.0
2017-May-23 09:31N 57°09' W 002°05'0 0.0
2017-May-23 09:00N 57°09' W 002°05'0 0.0
2017-May-23 08:30N 57°09' W 002°05'0 0.0
2017-May-23 08:00N 57°09' W 002°05'0 0.0
2017-May-23 07:30N 57°09' W 002°05'0 0.0
2017-May-23 07:00N 57°09' W 002°05'0 0.0
2017-May-23 06:30N 57°09' W 002°05'0 0.0
2017-May-23 06:00N 57°09' W 002°05'1 1.2
2017-May-23 05:30N 57°08' W 002°04'715.0
2017-May-23 05:00N 57°14' W 001°55'1918.9
2017-May-23 04:00N 57°30' W 001°37'9220.3
2017-May-22 23:29N 58°56' W 002°38'918.2
2017-May-22 23:00N 59°01' W 002°52'4 7.2
2017-May-22 22:30N 58°60' W 002°58'0 0.0
2017-May-22 22:00N 58°60' W 002°58'510.5
2017-May-22 21:30N 59°01' W 002°48'1017.2
2017-May-22 20:56N 59°01' W 002°29'3 0.2
2017-May-22 00:09N 59°04' W 002°28'213.3
2017-May-22 00:00N 59°02' W 002°30'611.1
2017-May-21 23:29N 59°01' W 002°41'613.5
2017-May-21 23:00N 59°01' W 002°53'3 5.7
2017-May-21 22:30N 58°60' W 002°58'0 0.0
2017-May-21 22:00N 58°60' W 002°58'5 9.1
2017-May-21 21:30N 59°01' W 002°50'9222.3
2017-May-21 17:23N 57°36' W 001°41'923.4
2017-May-21 17:00N 57°27' W 001°41'1223.6
2017-May-21 16:30N 57°17' W 001°52'1020.9
2017-May-21 16:01N 57°09' W 002°04'1 1.8
2017-May-21 15:30N 57°09' W 002°05'0 0.0
2017-May-21 15:00N 57°09' W 002°05'0 0.0
2017-May-21 14:30N 57°09' W 002°05'0 0.0
2017-May-21 13:30N 57°09' W 002°05'0 0.0
2017-May-21 13:01N 57°09' W 002°05'0 0.0
2017-May-21 12:30N 57°09' W 002°05'0 0.0
2017-May-21 12:00N 57°09' W 002°05'0 0.0
2017-May-21 11:31N 57°09' W 002°05'0 0.0
2017-May-21 11:00N 57°09' W 002°05'0 0.0
2017-May-21 10:30N 57°09' W 002°05'0 0.0
2017-May-21 10:00N 57°09' W 002°05'0 0.0
2017-May-21 09:31N 57°09' W 002°05'0 0.0
2017-May-21 09:00N 57°09' W 002°05'0 0.0
2017-May-21 08:30N 57°09' W 002°05'0 0.0
2017-May-21 08:00N 57°09' W 002°05'0 0.0
2017-May-21 07:31N 57°09' W 002°05'0 0.0
2017-May-21 07:00N 57°09' W 002°05'0 0.0
2017-May-21 06:30N 57°09' W 002°05'0 0.0
2017-May-21 06:01N 57°09' W 002°05'0 1.0
2017-May-21 05:30N 57°09' W 002°05'2211.8
2017-May-21 03:38N 57°27' W 001°41'212.0
2017-May-21 03:30N 57°28' W 001°40'714.3
2017-May-21 03:00N 57°35' W 001°37'1 0.0
2017-May-19 20:12N 57°36' W 001°37'314.4
2017-May-19 19:59N 57°33' W 001°37'714.0
2017-May-19 19:30N 57°26' W 001°40'914.4
2017-May-19 18:52N 57°18' W 001°49'514.4
2017-May-19 18:31N 57°14' W 001°55'714.3
2017-May-19 18:01N 57°09' W 002°03'1 2.2
2017-May-19 17:31N 57°09' W 002°05'0 0.0
2017-May-19 17:01N 57°09' W 002°05'0 0.0
2017-May-19 16:30N 57°09' W 002°05'0 0.0
2017-May-19 16:01N 57°09' W 002°05'0 0.0
2017-May-19 15:30N 57°09' W 002°05'0 0.0
2017-May-19 15:01N 57°09' W 002°05'0 0.0
2017-May-19 14:01N 57°09' W 002°05'0 0.0
2017-May-19 13:31N 57°09' W 002°05'0 0.0
2017-May-19 13:00N 57°09' W 002°05'0 0.0
2017-May-19 12:30N 57°09' W 002°05'0 0.0
2017-May-19 12:00N 57°09' W 002°05'0 0.0
2017-May-19 11:30N 57°09' W 002°05'0 0.0
2017-May-19 11:00N 57°09' W 002°05'0 0.0
2017-May-19 10:30N 57°09' W 002°05'0 0.0
2017-May-19 10:00N 57°09' W 002°05'0 0.0
2017-May-19 09:30N 57°09' W 002°05'0 0.0
2017-May-19 09:01N 57°09' W 002°05'0 0.0
2017-May-19 08:30N 57°09' W 002°05'0 0.0
2017-May-19 08:01N 57°09' W 002°05'0 0.0
2017-May-19 07:31N 57°09' W 002°05'0 0.0
2017-May-19 07:00N 57°09' W 002°05'0 0.0
2017-May-19 06:30N 57°09' W 002°05'0 0.0
2017-May-19 06:01N 57°09' W 002°05'1 1.1
2017-May-19 05:30N 57°09' W 002°04'713.1
2017-May-19 05:00N 57°13' W 001°56'1016.6
2017-May-19 04:25N 57°21' W 001°45'2 0.1
2017-May-17 18:45N 57°19' W 001°48'418.3
2017-May-17 18:30N 57°16' W 001°53'917.7
2017-May-17 18:00N 57°09' W 002°03'1 2.9
2017-May-17 17:31N 57°09' W 002°05'0 0.0
2017-May-17 17:01N 57°09' W 002°05'0 0.0
2017-May-17 16:30N 57°09' W 002°05'0 0.0
2017-May-17 16:00N 57°09' W 002°05'0 0.0
2017-May-17 15:30N 57°09' W 002°05'0 0.0
2017-May-17 15:00N 57°09' W 002°05'0 0.0
2017-May-17 14:00N 57°09' W 002°05'0 0.0
2017-May-17 13:31N 57°09' W 002°05'0 0.0
2017-May-17 13:00N 57°09' W 002°05'0 0.0
2017-May-17 12:30N 57°09' W 002°05'0 0.0
2017-May-17 12:00N 57°09' W 002°05'0 0.0
2017-May-17 11:30N 57°09' W 002°05'0 0.0
2017-May-17 11:00N 57°09' W 002°05'0 0.0
2017-May-17 10:30N 57°09' W 002°05'0 0.0
2017-May-17 10:00N 57°09' W 002°05'0 0.0
2017-May-17 09:30N 57°09' W 002°05'0 0.0
2017-May-17 09:00N 57°09' W 002°05'0 0.0
2017-May-17 08:30N 57°09' W 002°05'0 0.0
2017-May-17 08:00N 57°09' W 002°05'0 0.0
2017-May-17 07:30N 57°09' W 002°05'0 0.0
2017-May-17 07:01N 57°09' W 002°05'0 0.0
2017-May-17 06:30N 57°09' W 002°05'0 0.0
2017-May-17 06:00N 57°09' W 002°05'1 1.3
2017-May-17 05:31N 57°08' W 002°04'612.7
2017-May-17 05:01N 57°13' W 001°56'4 0.1
2017-May-15 18:26N 57°16' W 001°53'819.2
2017-May-15 18:00N 57°10' W 002°02'2 4.7
2017-May-15 17:30N 57°09' W 002°05'0 0.0
2017-May-15 17:00N 57°09' W 002°05'0 0.0
2017-May-15 16:30N 57°09' W 002°05'0 0.0
2017-May-15 16:00N 57°09' W 002°05'0 0.0
2017-May-15 15:30N 57°09' W 002°05'0 0.0
2017-May-15 15:00N 57°09' W 002°05'0 0.0
2017-May-15 14:00N 57°09' W 002°05'0 0.0
2017-May-15 13:30N 57°09' W 002°05'0 0.0
2017-May-15 13:00N 57°09' W 002°05'0 0.0
2017-May-15 12:30N 57°09' W 002°05'0 0.0
2017-May-15 12:01N 57°09' W 002°05'0 0.0
2017-May-15 11:30N 57°09' W 002°05'0 0.0
2017-May-15 11:01N 57°09' W 002°05'  

Dump ship's entire track history